sensor_id;sensor_type;location;lat;lon;timestamp;temperature;humidity
1391;DHT22;690;51.454;7.194;2024-03-06T00:00:54;5.10;99.90
1391;DHT22;690;51.454;7.194;2024-03-06T00:03:20;5.10;99.90
1391;DHT22;690;51.454;7.194;2024-03-06T00:05:47;5.10;99.90
1391;DHT22;690;51.454;7.194;2024-03-06T00:08:15;5.10;99.90
1391;DHT22;690;51.454;7.194;2024-03-06T00:10:42;5.00;99.90
1391;DHT22;690;51.454;7.194;2024-03-06T00:13:10;5.00;99.90
1391;DHT22;690;51.454;7.194;2024-03-06T00:15:39;5.00;99.90
1391;DHT22;690;51.454;7.194;2024-03-06T00:18:06;5.00;99.90
1391;DHT22;690;51.454;7.194;2024-03-06T00:20:33;5.00;99.90
1391;DHT22;690;51.454;7.194;2024-03-06T00:23:00;5.00;99.90
1391;DHT22;690;51.454;7.194;2024-03-06T00:25:26;5.00;99.90
1391;DHT22;690;51.454;7.194;2024-03-06T00:27:53;5.00;99.90
1391;DHT22;690;51.454;7.194;2024-03-06T00:30:20;5.00;99.90
1391;DHT22;690;51.454;7.194;2024-03-06T00:32:49;5.00;99.90
1391;DHT22;690;51.454;7.194;2024-03-06T00:35:16;5.00;76.80
1391;DHT22;690;51.454;7.194;2024-03-06T00:37:43;5.00;99.90
1391;DHT22;690;51.454;7.194;2024-03-06T00:40:11;5.00;99.90
1391;DHT22;690;51.454;7.194;2024-03-06T00:42:38;5.00;99.90
1391;DHT22;690;51.454;7.194;2024-03-06T00:45:07;5.00;99.90
1391;DHT22;690;51.454;7.194;2024-03-06T00:47:34;5.00;99.90
1391;DHT22;690;51.454;7.194;2024-03-06T00:50:02;5.00;99.90
1391;DHT22;690;51.454;7.194;2024-03-06T00:52:30;5.00;99.90
1391;DHT22;690;51.454;7.194;2024-03-06T00:54:57;4.90;99.90
1391;DHT22;690;51.454;7.194;2024-03-06T00:57:24;4.90;99.90
1391;DHT22;690;51.454;7.194;2024-03-06T00:59:51;4.90;99.90
1391;DHT22;690;51.454;7.194;2024-03-06T01:02:18;4.80;99.90
1391;DHT22;690;51.454;7.194;2024-03-06T01:04:45;4.80;99.90
1391;DHT22;690;51.454;7.194;2024-03-06T01:07:13;4.80;99.90
1391;DHT22;690;51.454;7.194;2024-03-06T01:09:40;4.80;99.90
1391;DHT22;690;51.454;7.194;2024-03-06T01:12:07;4.80;99.90
1391;DHT22;690;51.454;7.194;2024-03-06T01:14:34;4.80;99.90
1391;DHT22;690;51.454;7.194;2024-03-06T01:17:01;4.70;99.90
1391;DHT22;690;51.454;7.194;2024-03-06T01:19:28;4.60;99.90
1391;DHT22;690;51.454;7.194;2024-03-06T01:21:55;4.60;99.90
1391;DHT22;690;51.454;7.194;2024-03-06T01:24:24;4.50;99.90
1391;DHT22;690;51.454;7.194;2024-03-06T01:26:51;4.50;99.90
1391;DHT22;690;51.454;7.194;2024-03-06T01:29:18;4.40;99.90
1391;DHT22;690;51.454;7.194;2024-03-06T01:31:45;4.40;99.90
1391;DHT22;690;51.454;7.194;2024-03-06T01:34:13;4.30;99.90
1391;DHT22;690;51.454;7.194;2024-03-06T01:36:40;4.20;99.90
1391;DHT22;690;51.454;7.194;2024-03-06T01:39:07;4.20;99.90
1391;DHT22;690;51.454;7.194;2024-03-06T01:41:36;4.20;99.90
1391;DHT22;690;51.454;7.194;2024-03-06T01:44:03;4.10;99.90
1391;DHT22;690;51.454;7.194;2024-03-06T01:46:30;4.10;99.90
1391;DHT22;690;51.454;7.194;2024-03-06T01:48:58;4.10;99.90
1391;DHT22;690;51.454;7.194;2024-03-06T01:51:25;4.10;99.90
1391;DHT22;690;51.454;7.194;2024-03-06T01:53:52;4.10;99.90
1391;DHT22;690;51.454;7.194;2024-03-06T01:56:19;4.10;99.90
1391;DHT22;690;51.454;7.194;2024-03-06T01:58:48;4.10;99.90
1391;DHT22;690;51.454;7.194;2024-03-06T02:01:16;4.10;99.90
1391;DHT22;690;51.454;7.194;2024-03-06T02:03:45;4.10;99.90
1391;DHT22;690;51.454;7.194;2024-03-06T02:06:14;4.10;99.90
1391;DHT22;690;51.454;7.194;2024-03-06T02:08:45;4.00;99.90
1391;DHT22;690;51.454;7.194;2024-03-06T02:11:12;4.00;99.90
1391;DHT22;690;51.454;7.194;2024-03-06T02:13:39;4.00;99.90
1391;DHT22;690;51.454;7.194;2024-03-06T02:16:09;4.00;99.90
1391;DHT22;690;51.454;7.194;2024-03-06T02:18:36;4.00;99.90
1391;DHT22;690;51.454;7.194;2024-03-06T02:21:04;4.00;99.90
1391;DHT22;690;51.454;7.194;2024-03-06T02:23:33;4.00;99.90
1391;DHT22;690;51.454;7.194;2024-03-06T02:25:59;4.00;99.90
1391;DHT22;690;51.454;7.194;2024-03-06T02:28:28;4.10;99.90
1391;DHT22;690;51.454;7.194;2024-03-06T02:30:55;4.10;99.90
1391;DHT22;690;51.454;7.194;2024-03-06T02:33:22;4.10;1.00
1391;DHT22;690;51.454;7.194;2024-03-06T02:35:49;4.20;1.00
1391;DHT22;690;51.454;7.194;2024-03-06T02:38:17;4.20;1.00
1391;DHT22;690;51.454;7.194;2024-03-06T02:40:44;4.20;1.00
1391;DHT22;690;51.454;7.194;2024-03-06T02:43:11;4.20;99.90
1391;DHT22;690;51.454;7.194;2024-03-06T02:45:38;4.20;99.90
1391;DHT22;690;51.454;7.194;2024-03-06T02:48:05;4.10;99.90
1391;DHT22;690;51.454;7.194;2024-03-06T02:50:33;4.00;99.90
1391;DHT22;690;51.454;7.194;2024-03-06T02:52:59;3.90;99.90
1391;DHT22;690;51.454;7.194;2024-03-06T02:55:28;3.80;99.90
1391;DHT22;690;51.454;7.194;2024-03-06T02:57:55;3.80;99.90
1391;DHT22;690;51.454;7.194;2024-03-06T03:00:22;3.70;99.90
1391;DHT22;690;51.454;7.194;2024-03-06T03:02:49;3.60;99.90
1391;DHT22;690;51.454;7.194;2024-03-06T03:05:16;3.50;99.90
1391;DHT22;690;51.454;7.194;2024-03-06T03:07:43;3.40;99.90
1391;DHT22;690;51.454;7.194;2024-03-06T03:10:10;3.40;99.90
1391;DHT22;690;51.454;7.194;2024-03-06T03:12:39;3.30;99.90
1391;DHT22;690;51.454;7.194;2024-03-06T03:15:07;3.20;99.90
1391;DHT22;690;51.454;7.194;2024-03-06T03:17:34;3.10;99.90
1391;DHT22;690;51.454;7.194;2024-03-06T03:20:00;3.10;99.90
1391;DHT22;690;51.454;7.194;2024-03-06T03:22:35;3.10;99.90
1391;DHT22;690;51.454;7.194;2024-03-06T03:25:02;3.00;99.90
1391;DHT22;690;51.454;7.194;2024-03-06T03:27:32;3.00;99.90
1391;DHT22;690;51.454;7.194;2024-03-06T03:30:01;2.90;99.90
1391;DHT22;690;51.454;7.194;2024-03-06T03:32:28;2.90;99.90
1391;DHT22;690;51.454;7.194;2024-03-06T03:34:55;2.80;99.90
1391;DHT22;690;51.454;7.194;2024-03-06T03:37:22;2.80;99.90
1391;DHT22;690;51.454;7.194;2024-03-06T03:39:49;2.80;99.90
1391;DHT22;690;51.454;7.194;2024-03-06T03:42:16;2.70;99.90
1391;DHT22;690;51.454;7.194;2024-03-06T03:44:43;2.60;99.90
1391;DHT22;690;51.454;7.194;2024-03-06T03:47:11;2.60;1.00
1391;DHT22;690;51.454;7.194;2024-03-06T03:49:38;2.60;99.90
1391;DHT22;690;51.454;7.194;2024-03-06T03:52:05;2.50;1.00
1391;DHT22;690;51.454;7.194;2024-03-06T03:54:32;2.50;1.00
1391;DHT22;690;51.454;7.194;2024-03-06T03:56:59;2.40;1.00
1391;DHT22;690;51.454;7.194;2024-03-06T03:59:26;2.40;1.00
1391;DHT22;690;51.454;7.194;2024-03-06T04:01:53;2.40;1.00
1391;DHT22;690;51.454;7.194;2024-03-06T04:04:24;2.30;1.00
1391;DHT22;690;51.454;7.194;2024-03-06T04:06:51;2.30;1.00
1391;DHT22;690;51.454;7.194;2024-03-06T04:09:17;2.30;1.00
1391;DHT22;690;51.454;7.194;2024-03-06T04:11:44;2.30;1.00
1391;DHT22;690;51.454;7.194;2024-03-06T04:14:11;2.30;1.00
1391;DHT22;690;51.454;7.194;2024-03-06T04:16:38;2.30;1.00
1391;DHT22;690;51.454;7.194;2024-03-06T04:19:05;2.30;1.00
1391;DHT22;690;51.454;7.194;2024-03-06T04:21:33;2.30;1.00
1391;DHT22;690;51.454;7.194;2024-03-06T04:24:00;2.40;1.00
1391;DHT22;690;51.454;7.194;2024-03-06T04:26:27;2.40;1.00
1391;DHT22;690;51.454;7.194;2024-03-06T04:28:54;2.40;1.00
1391;DHT22;690;51.454;7.194;2024-03-06T04:31:21;2.40;1.00
1391;DHT22;690;51.454;7.194;2024-03-06T04:33:47;2.40;1.00
1391;DHT22;690;51.454;7.194;2024-03-06T04:36:14;2.30;1.00
1391;DHT22;690;51.454;7.194;2024-03-06T04:38:43;2.30;1.00
1391;DHT22;690;51.454;7.194;2024-03-06T04:41:10;2.30;1.00
1391;DHT22;690;51.454;7.194;2024-03-06T04:43:37;2.20;1.00
1391;DHT22;690;51.454;7.194;2024-03-06T04:46:04;2.20;1.00
1391;DHT22;690;51.454;7.194;2024-03-06T04:48:31;2.30;1.00
1391;DHT22;690;51.454;7.194;2024-03-06T04:50:58;2.30;1.00
1391;DHT22;690;51.454;7.194;2024-03-06T04:53:25;2.30;1.00
1391;DHT22;690;51.454;7.194;2024-03-06T04:55:53;2.30;1.00
1391;DHT22;690;51.454;7.194;2024-03-06T04:58:20;2.30;1.00
1391;DHT22;690;51.454;7.194;2024-03-06T05:00:47;2.30;84.90
1391;DHT22;690;51.454;7.194;2024-03-06T05:03:14;2.40;99.90
1391;DHT22;690;51.454;7.194;2024-03-06T05:05:41;2.40;99.90
1391;DHT22;690;51.454;7.194;2024-03-06T05:08:08;2.50;99.90
1391;DHT22;690;51.454;7.194;2024-03-06T05:10:36;2.50;99.90
1391;DHT22;690;51.454;7.194;2024-03-06T05:13:04;2.50;99.90
1391;DHT22;690;51.454;7.194;2024-03-06T05:15:31;2.60;99.90
1391;DHT22;690;51.454;7.194;2024-03-06T05:17:58;2.60;22.00
1391;DHT22;690;51.454;7.194;2024-03-06T05:20:26;2.60;1.00
1391;DHT22;690;51.454;7.194;2024-03-06T05:22:55;2.50;1.00
1391;DHT22;690;51.454;7.194;2024-03-06T05:25:22;2.40;1.00
1391;DHT22;690;51.454;7.194;2024-03-06T05:27:50;2.30;1.00
1391;DHT22;690;51.454;7.194;2024-03-06T05:30:18;2.20;1.00
1391;DHT22;690;51.454;7.194;2024-03-06T05:32:45;2.10;59.80
1391;DHT22;690;51.454;7.194;2024-03-06T05:35:12;2.10;99.90
1391;DHT22;690;51.454;7.194;2024-03-06T05:37:39;2.00;99.90
1391;DHT22;690;51.454;7.194;2024-03-06T05:40:07;2.00;55.40
1391;DHT22;690;51.454;7.194;2024-03-06T05:42:35;2.00;1.00
1391;DHT22;690;51.454;7.194;2024-03-06T05:45:02;1.90;1.00
1391;DHT22;690;51.454;7.194;2024-03-06T05:47:32;1.90;1.00
1391;DHT22;690;51.454;7.194;2024-03-06T05:50:00;1.90;1.00
1391;DHT22;690;51.454;7.194;2024-03-06T05:52:30;1.90;1.00
1391;DHT22;690;51.454;7.194;2024-03-06T05:54:56;1.80;1.00
1391;DHT22;690;51.454;7.194;2024-03-06T05:57:23;1.80;4.90
1391;DHT22;690;51.454;7.194;2024-03-06T05:59:50;1.80;10.10
1391;DHT22;690;51.454;7.194;2024-03-06T06:02:17;1.80;13.30
1391;DHT22;690;51.454;7.194;2024-03-06T06:04:46;1.80;1.00
1391;DHT22;690;51.454;7.194;2024-03-06T06:07:13;1.80;1.30
1391;DHT22;690;51.454;7.194;2024-03-06T06:09:41;1.70;22.60
1391;DHT22;690;51.454;7.194;2024-03-06T06:12:08;1.80;15.80
1391;DHT22;690;51.454;7.194;2024-03-06T06:14:35;1.70;49.70
1391;DHT22;690;51.454;7.194;2024-03-06T06:17:02;1.70;99.90
1391;DHT22;690;51.454;7.194;2024-03-06T06:19:29;1.70;99.90
1391;DHT22;690;51.454;7.194;2024-03-06T06:21:58;1.70;92.70
1391;DHT22;690;51.454;7.194;2024-03-06T06:24:25;1.70;94.50
1391;DHT22;690;51.454;7.194;2024-03-06T06:26:52;1.70;99.90
1391;DHT22;690;51.454;7.194;2024-03-06T06:29:18;1.70;99.90
1391;DHT22;690;51.454;7.194;2024-03-06T06:31:45;1.70;99.90
1391;DHT22;690;51.454;7.194;2024-03-06T06:34:12;1.70;99.90
1391;DHT22;690;51.454;7.194;2024-03-06T06:36:45;1.70;99.90
1391;DHT22;690;51.454;7.194;2024-03-06T06:39:13;1.70;99.90
1391;DHT22;690;51.454;7.194;2024-03-06T06:41:42;1.70;89.70
1391;DHT22;690;51.454;7.194;2024-03-06T06:44:09;1.70;85.20
1391;DHT22;690;51.454;7.194;2024-03-06T06:46:36;1.70;99.90
1391;DHT22;690;51.454;7.194;2024-03-06T06:49:03;1.70;99.90
1391;DHT22;690;51.454;7.194;2024-03-06T06:51:30;1.70;99.90
1391;DHT22;690;51.454;7.194;2024-03-06T06:53:57;1.70;99.90
1391;DHT22;690;51.454;7.194;2024-03-06T06:56:25;1.70;99.90
1391;DHT22;690;51.454;7.194;2024-03-06T06:58:52;1.80;99.90
1391;DHT22;690;51.454;7.194;2024-03-06T07:01:19;1.80;1.00
1391;DHT22;690;51.454;7.194;2024-03-06T07:03:46;1.90;1.00
1391;DHT22;690;51.454;7.194;2024-03-06T07:06:12;1.90;1.00
1391;DHT22;690;51.454;7.194;2024-03-06T07:08:39;2.00;1.00
1391;DHT22;690;51.454;7.194;2024-03-06T07:11:06;2.10;1.00
1391;DHT22;690;51.454;7.194;2024-03-06T07:13:34;2.10;1.00
1391;DHT22;690;51.454;7.194;2024-03-06T07:16:03;2.20;11.80
1391;DHT22;690;51.454;7.194;2024-03-06T07:18:29;2.20;86.70
1391;DHT22;690;51.454;7.194;2024-03-06T07:20:56;2.30;99.90
1391;DHT22;690;51.454;7.194;2024-03-06T07:23:24;2.30;99.90
1391;DHT22;690;51.454;7.194;2024-03-06T07:25:50;2.40;99.90
1391;DHT22;690;51.454;7.194;2024-03-06T07:28:17;2.50;99.90
1391;DHT22;690;51.454;7.194;2024-03-06T07:30:46;2.50;99.90
1391;DHT22;690;51.454;7.194;2024-03-06T07:33:13;2.60;99.90
1391;DHT22;690;51.454;7.194;2024-03-06T07:35:40;2.70;1.00
1391;DHT22;690;51.454;7.194;2024-03-06T07:38:07;2.70;1.00
1391;DHT22;690;51.454;7.194;2024-03-06T07:40:35;2.80;1.00
1391;DHT22;690;51.454;7.194;2024-03-06T07:43:02;2.90;1.00
1391;DHT22;690;51.454;7.194;2024-03-06T07:45:29;2.90;1.00
1391;DHT22;690;51.454;7.194;2024-03-06T07:47:58;3.00;1.00
1391;DHT22;690;51.454;7.194;2024-03-06T07:50:25;3.10;1.00
1391;DHT22;690;51.454;7.194;2024-03-06T07:52:52;3.20;1.00
1391;DHT22;690;51.454;7.194;2024-03-06T07:55:20;3.20;26.30
1391;DHT22;690;51.454;7.194;2024-03-06T07:57:47;3.30;99.90
1391;DHT22;690;51.454;7.194;2024-03-06T08:00:15;3.40;99.90
1391;DHT22;690;51.454;7.194;2024-03-06T08:02:45;3.50;99.90
1391;DHT22;690;51.454;7.194;2024-03-06T08:05:17;3.50;99.90
1391;DHT22;690;51.454;7.194;2024-03-06T08:07:44;3.60;99.90
1391;DHT22;690;51.454;7.194;2024-03-06T08:10:12;3.70;99.90
1391;DHT22;690;51.454;7.194;2024-03-06T08:12:40;3.80;1.00
1391;DHT22;690;51.454;7.194;2024-03-06T08:15:09;3.90;1.00
1391;DHT22;690;51.454;7.194;2024-03-06T08:17:38;4.00;1.00
1391;DHT22;690;51.454;7.194;2024-03-06T08:20:07;4.10;1.00
1391;DHT22;690;51.454;7.194;2024-03-06T08:22:37;4.20;1.00
1391;DHT22;690;51.454;7.194;2024-03-06T08:25:06;4.30;1.00
1391;DHT22;690;51.454;7.194;2024-03-06T08:27:34;4.40;1.00
1391;DHT22;690;51.454;7.194;2024-03-06T08:30:02;4.50;1.00
1391;DHT22;690;51.454;7.194;2024-03-06T08:32:30;4.60;1.00
1391;DHT22;690;51.454;7.194;2024-03-06T08:34:57;4.70;30.30
1391;DHT22;690;51.454;7.194;2024-03-06T08:37:24;4.80;68.00
1391;DHT22;690;51.454;7.194;2024-03-06T08:39:52;4.90;99.90
1391;DHT22;690;51.454;7.194;2024-03-06T08:42:19;5.00;99.90
1391;DHT22;690;51.454;7.194;2024-03-06T08:44:46;5.10;99.90
1391;DHT22;690;51.454;7.194;2024-03-06T08:47:13;5.20;99.90
1391;DHT22;690;51.454;7.194;2024-03-06T08:49:40;5.30;99.90
1391;DHT22;690;51.454;7.194;2024-03-06T08:52:07;5.40;99.90
1391;DHT22;690;51.454;7.194;2024-03-06T08:54:35;5.50;99.90
1391;DHT22;690;51.454;7.194;2024-03-06T08:57:04;5.60;99.90
1391;DHT22;690;51.454;7.194;2024-03-06T08:59:31;5.70;99.90
1391;DHT22;690;51.454;7.194;2024-03-06T09:01:58;5.80;99.90
1391;DHT22;690;51.454;7.194;2024-03-06T09:04:38;5.90;99.90
1391;DHT22;690;51.454;7.194;2024-03-06T09:07:04;6.00;99.90
1391;DHT22;690;51.454;7.194;2024-03-06T09:09:31;6.10;99.90
1391;DHT22;690;51.454;7.194;2024-03-06T09:11:59;6.20;99.90
1391;DHT22;690;51.454;7.194;2024-03-06T09:14:27;6.30;99.90
1391;DHT22;690;51.454;7.194;2024-03-06T09:16:54;6.40;99.90
1391;DHT22;690;51.454;7.194;2024-03-06T09:19:21;6.50;99.90
1391;DHT22;690;51.454;7.194;2024-03-06T09:21:48;6.70;99.90
1391;DHT22;690;51.454;7.194;2024-03-06T09:24:15;6.80;99.90
1391;DHT22;690;51.454;7.194;2024-03-06T09:26:43;6.90;99.90
1391;DHT22;690;51.454;7.194;2024-03-06T09:29:09;7.00;99.90
1391;DHT22;690;51.454;7.194;2024-03-06T09:31:38;7.20;99.90
1391;DHT22;690;51.454;7.194;2024-03-06T09:34:04;7.20;99.90
1391;DHT22;690;51.454;7.194;2024-03-06T09:36:31;7.30;99.90
1391;DHT22;690;51.454;7.194;2024-03-06T09:39:00;7.50;99.90
1391;DHT22;690;51.454;7.194;2024-03-06T09:41:27;7.50;99.90
1391;DHT22;690;51.454;7.194;2024-03-06T09:43:54;7.60;99.90
1391;DHT22;690;51.454;7.194;2024-03-06T09:46:21;7.70;99.90
1391;DHT22;690;51.454;7.194;2024-03-06T09:48:51;7.80;1.00
1391;DHT22;690;51.454;7.194;2024-03-06T09:51:18;8.00;1.00
1391;DHT22;690;51.454;7.194;2024-03-06T09:53:46;8.20;1.00
1391;DHT22;690;51.454;7.194;2024-03-06T09:56:15;8.40;1.00
1391;DHT22;690;51.454;7.194;2024-03-06T09:58:42;8.50;99.90
1391;DHT22;690;51.454;7.194;2024-03-06T10:01:09;8.80;1.00
1391;DHT22;690;51.454;7.194;2024-03-06T10:03:37;9.10;22.80
1391;DHT22;690;51.454;7.194;2024-03-06T10:06:08;9.30;99.90
1391;DHT22;690;51.454;7.194;2024-03-06T10:08:35;9.50;1.00
1391;DHT22;690;51.454;7.194;2024-03-06T10:11:03;9.60;99.90
1391;DHT22;690;51.454;7.194;2024-03-06T10:13:31;9.70;99.90
1391;DHT22;690;51.454;7.194;2024-03-06T10:16:00;9.80;99.90
1391;DHT22;690;51.454;7.194;2024-03-06T10:18:28;9.80;72.60
1391;DHT22;690;51.454;7.194;2024-03-06T10:20:56;9.70;1.00
1391;DHT22;690;51.454;7.194;2024-03-06T10:23:24;9.50;3.90
1391;DHT22;690;51.454;7.194;2024-03-06T10:25:54;9.40;27.30
1391;DHT22;690;51.454;7.194;2024-03-06T10:28:22;9.30;14.90
1391;DHT22;690;51.454;7.194;2024-03-06T10:30:50;9.20;1.00
1391;DHT22;690;51.454;7.194;2024-03-06T10:33:18;9.20;1.00
1391;DHT22;690;51.454;7.194;2024-03-06T10:35:47;9.20;1.00
1391;DHT22;690;51.454;7.194;2024-03-06T10:38:14;9.30;1.00
1391;DHT22;690;51.454;7.194;2024-03-06T10:40:44;9.40;1.00
1391;DHT22;690;51.454;7.194;2024-03-06T10:43:11;9.40;1.00
1391;DHT22;690;51.454;7.194;2024-03-06T10:45:48;9.50;1.00
1391;DHT22;690;51.454;7.194;2024-03-06T10:48:16;9.50;1.00
1391;DHT22;690;51.454;7.194;2024-03-06T10:50:45;9.50;1.00
1391;DHT22;690;51.454;7.194;2024-03-06T10:53:13;9.70;1.00
1391;DHT22;690;51.454;7.194;2024-03-06T10:55:42;9.80;1.00
1391;DHT22;690;51.454;7.194;2024-03-06T10:58:11;10.00;1.00
1391;DHT22;690;51.454;7.194;2024-03-06T11:00:39;10.10;1.00
1391;DHT22;690;51.454;7.194;2024-03-06T11:03:08;10.30;1.00
1391;DHT22;690;51.454;7.194;2024-03-06T11:05:37;10.30;99.90
1391;DHT22;690;51.454;7.194;2024-03-06T11:08:06;10.40;99.90
1391;DHT22;690;51.454;7.194;2024-03-06T11:10:35;10.40;99.90
1391;DHT22;690;51.454;7.194;2024-03-06T11:13:03;10.50;99.90
1391;DHT22;690;51.454;7.194;2024-03-06T11:15:32;10.60;99.90
1391;DHT22;690;51.454;7.194;2024-03-06T11:17:59;10.60;99.90
1391;DHT22;690;51.454;7.194;2024-03-06T11:20:46;10.40;99.90
1391;DHT22;690;51.454;7.194;2024-03-06T11:23:12;10.20;99.90
1391;DHT22;690;51.454;7.194;2024-03-06T11:26:00;10.00;99.90
1391;DHT22;690;51.454;7.194;2024-03-06T11:28:29;9.80;99.90
1391;DHT22;690;51.454;7.194;2024-03-06T11:30:58;9.70;99.90
1391;DHT22;690;51.454;7.194;2024-03-06T11:33:35;9.50;99.90
1391;DHT22;690;51.454;7.194;2024-03-06T11:36:16;9.40;99.90
1391;DHT22;690;51.454;7.194;2024-03-06T11:38:47;9.30;99.90
1391;DHT22;690;51.454;7.194;2024-03-06T11:41:14;9.30;99.90
1391;DHT22;690;51.454;7.194;2024-03-06T11:43:44;9.40;1.00
1391;DHT22;690;51.454;7.194;2024-03-06T11:46:14;9.50;1.00
1391;DHT22;690;51.454;7.194;2024-03-06T11:48:42;9.70;1.00
1391;DHT22;690;51.454;7.194;2024-03-06T11:51:10;9.80;1.00
1391;DHT22;690;51.454;7.194;2024-03-06T11:53:39;10.00;99.90
1391;DHT22;690;51.454;7.194;2024-03-06T11:56:10;10.20;99.90
1391;DHT22;690;51.454;7.194;2024-03-06T11:58:37;10.50;99.90
1391;DHT22;690;51.454;7.194;2024-03-06T12:01:04;10.80;99.90
1391;DHT22;690;51.454;7.194;2024-03-06T12:03:33;11.10;99.90
1391;DHT22;690;51.454;7.194;2024-03-06T12:06:00;11.40;99.90
1391;DHT22;690;51.454;7.194;2024-03-06T12:08:27;11.70;99.90
1391;DHT22;690;51.454;7.194;2024-03-06T12:10:54;12.00;99.90
1391;DHT22;690;51.454;7.194;2024-03-06T12:13:23;12.20;99.90
1391;DHT22;690;51.454;7.194;2024-03-06T12:15:50;12.30;99.90
1391;DHT22;690;51.454;7.194;2024-03-06T12:18:19;12.20;99.90
1391;DHT22;690;51.454;7.194;2024-03-06T12:20:49;12.10;99.90
1391;DHT22;690;51.454;7.194;2024-03-06T12:23:20;11.90;99.90
1391;DHT22;690;51.454;7.194;2024-03-06T12:25:49;11.70;99.90
1391;DHT22;690;51.454;7.194;2024-03-06T12:28:16;11.40;99.90
1391;DHT22;690;51.454;7.194;2024-03-06T12:30:44;11.20;99.90
1391;DHT22;690;51.454;7.194;2024-03-06T12:33:16;11.00;99.90
1391;DHT22;690;51.454;7.194;2024-03-06T12:35:43;10.80;99.90
1391;DHT22;690;51.454;7.194;2024-03-06T12:38:15;10.70;99.90
1391;DHT22;690;51.454;7.194;2024-03-06T12:40:42;10.60;99.90
1391;DHT22;690;51.454;7.194;2024-03-06T12:43:09;10.50;99.90
1391;DHT22;690;51.454;7.194;2024-03-06T12:45:36;10.30;99.90
1391;DHT22;690;51.454;7.194;2024-03-06T12:48:04;10.30;99.90
1391;DHT22;690;51.454;7.194;2024-03-06T12:50:32;10.30;99.90
1391;DHT22;690;51.454;7.194;2024-03-06T12:52:59;10.10;99.90
1391;DHT22;690;51.454;7.194;2024-03-06T12:55:27;10.10;99.90
1391;DHT22;690;51.454;7.194;2024-03-06T12:57:54;10.00;99.90
1391;DHT22;690;51.454;7.194;2024-03-06T13:00:21;10.00;99.90
1391;DHT22;690;51.454;7.194;2024-03-06T13:02:50;10.00;99.90
1391;DHT22;690;51.454;7.194;2024-03-06T13:05:17;10.10;99.90
1391;DHT22;690;51.454;7.194;2024-03-06T13:07:45;10.10;99.90
1391;DHT22;690;51.454;7.194;2024-03-06T13:10:12;10.10;99.90
1391;DHT22;690;51.454;7.194;2024-03-06T13:12:40;10.30;99.90
1391;DHT22;690;51.454;7.194;2024-03-06T13:15:08;10.30;99.90
1391;DHT22;690;51.454;7.194;2024-03-06T13:17:35;10.30;99.90
1391;DHT22;690;51.454;7.194;2024-03-06T13:20:02;10.40;99.90
1391;DHT22;690;51.454;7.194;2024-03-06T13:22:30;10.50;99.90
1391;DHT22;690;51.454;7.194;2024-03-06T13:24:57;10.80;99.90
1391;DHT22;690;51.454;7.194;2024-03-06T13:27:24;11.00;99.90
1391;DHT22;690;51.454;7.194;2024-03-06T13:29:52;11.30;99.90
1391;DHT22;690;51.454;7.194;2024-03-06T13:32:19;11.50;99.90
1391;DHT22;690;51.454;7.194;2024-03-06T13:34:46;11.70;99.90
1391;DHT22;690;51.454;7.194;2024-03-06T13:37:14;11.80;99.90
1391;DHT22;690;51.454;7.194;2024-03-06T13:39:40;11.80;99.90
1391;DHT22;690;51.454;7.194;2024-03-06T13:42:07;11.70;99.90
1391;DHT22;690;51.454;7.194;2024-03-06T13:44:35;11.50;99.90
1391;DHT22;690;51.454;7.194;2024-03-06T13:47:03;11.30;99.90
1391;DHT22;690;51.454;7.194;2024-03-06T13:49:38;11.00;99.90
1391;DHT22;690;51.454;7.194;2024-03-06T13:52:06;10.90;99.90
1391;DHT22;690;51.454;7.194;2024-03-06T13:54:37;10.60;99.90
1391;DHT22;690;51.454;7.194;2024-03-06T13:57:04;10.60;99.90
1391;DHT22;690;51.454;7.194;2024-03-06T13:59:31;10.50;99.90
1391;DHT22;690;51.454;7.194;2024-03-06T14:01:59;10.40;99.90
1391;DHT22;690;51.454;7.194;2024-03-06T14:04:27;10.30;99.90
1391;DHT22;690;51.454;7.194;2024-03-06T14:06:54;10.30;99.90
1391;DHT22;690;51.454;7.194;2024-03-06T14:09:22;10.40;99.90
1391;DHT22;690;51.454;7.194;2024-03-06T14:11:50;10.60;99.90
1391;DHT22;690;51.454;7.194;2024-03-06T14:14:17;10.80;99.90
1391;DHT22;690;51.454;7.194;2024-03-06T14:16:45;11.00;99.90
1391;DHT22;690;51.454;7.194;2024-03-06T14:19:12;11.20;99.90
1391;DHT22;690;51.454;7.194;2024-03-06T14:21:40;11.20;99.90
1391;DHT22;690;51.454;7.194;2024-03-06T14:24:07;11.20;99.90
1391;DHT22;690;51.454;7.194;2024-03-06T14:26:34;11.20;99.90
1391;DHT22;690;51.454;7.194;2024-03-06T14:29:02;10.90;99.90
1391;DHT22;690;51.454;7.194;2024-03-06T14:31:31;10.70;99.90
1391;DHT22;690;51.454;7.194;2024-03-06T14:33:58;10.50;99.90
1391;DHT22;690;51.454;7.194;2024-03-06T14:36:25;10.40;99.90
1391;DHT22;690;51.454;7.194;2024-03-06T14:38:53;10.40;99.90
1391;DHT22;690;51.454;7.194;2024-03-06T14:41:20;10.40;99.90
1391;DHT22;690;51.454;7.194;2024-03-06T14:43:47;10.40;99.90
1391;DHT22;690;51.454;7.194;2024-03-06T14:46:15;10.40;99.90
1391;DHT22;690;51.454;7.194;2024-03-06T14:48:41;10.50;99.90
1391;DHT22;690;51.454;7.194;2024-03-06T14:51:10;10.60;99.90
1391;DHT22;690;51.454;7.194;2024-03-06T14:53:37;10.70;99.90
1391;DHT22;690;51.454;7.194;2024-03-06T14:56:06;10.80;99.90
1391;DHT22;690;51.454;7.194;2024-03-06T14:58:33;10.70;99.90
1391;DHT22;690;51.454;7.194;2024-03-06T15:01:00;10.70;99.90
1391;DHT22;690;51.454;7.194;2024-03-06T15:03:27;10.60;99.90
1391;DHT22;690;51.454;7.194;2024-03-06T15:05:54;10.50;99.90
1391;DHT22;690;51.454;7.194;2024-03-06T15:08:21;10.50;99.90
1391;DHT22;690;51.454;7.194;2024-03-06T15:10:49;10.50;99.90
1391;DHT22;690;51.454;7.194;2024-03-06T15:13:18;10.50;99.90
1391;DHT22;690;51.454;7.194;2024-03-06T15:15:45;10.60;99.90
1391;DHT22;690;51.454;7.194;2024-03-06T15:18:12;10.60;99.90
1391;DHT22;690;51.454;7.194;2024-03-06T15:20:39;10.70;99.90
1391;DHT22;690;51.454;7.194;2024-03-06T15:23:06;10.70;99.90
1391;DHT22;690;51.454;7.194;2024-03-06T15:25:33;10.80;99.90
1391;DHT22;690;51.454;7.194;2024-03-06T15:28:00;10.70;99.90
1391;DHT22;690;51.454;7.194;2024-03-06T15:30:28;10.80;99.90
1391;DHT22;690;51.454;7.194;2024-03-06T15:32:57;10.80;99.90
1391;DHT22;690;51.454;7.194;2024-03-06T15:35:24;10.80;99.90
1391;DHT22;690;51.454;7.194;2024-03-06T15:37:51;10.80;99.90
1391;DHT22;690;51.454;7.194;2024-03-06T15:40:20;10.80;99.90
1391;DHT22;690;51.454;7.194;2024-03-06T15:42:47;10.70;99.90
1391;DHT22;690;51.454;7.194;2024-03-06T15:45:14;10.60;99.90
1391;DHT22;690;51.454;7.194;2024-03-06T15:47:42;10.40;99.90
1391;DHT22;690;51.454;7.194;2024-03-06T15:50:11;10.30;99.90
1391;DHT22;690;51.454;7.194;2024-03-06T15:52:38;10.10;99.90
1391;DHT22;690;51.454;7.194;2024-03-06T15:55:05;10.10;99.90
1391;DHT22;690;51.454;7.194;2024-03-06T15:57:33;10.00;99.90
1391;DHT22;690;51.454;7.194;2024-03-06T16:00:00;9.90;99.90
1391;DHT22;690;51.454;7.194;2024-03-06T16:02:28;9.80;99.90
1391;DHT22;690;51.454;7.194;2024-03-06T16:04:56;9.80;99.90
1391;DHT22;690;51.454;7.194;2024-03-06T16:07:23;9.80;99.90
1391;DHT22;690;51.454;7.194;2024-03-06T16:09:50;9.90;99.90
1391;DHT22;690;51.454;7.194;2024-03-06T16:12:18;9.90;99.90
1391;DHT22;690;51.454;7.194;2024-03-06T16:14:45;10.00;99.90
1391;DHT22;690;51.454;7.194;2024-03-06T16:17:11;10.00;99.90
1391;DHT22;690;51.454;7.194;2024-03-06T16:19:39;10.10;99.90
1391;DHT22;690;51.454;7.194;2024-03-06T16:22:08;10.10;99.90
1391;DHT22;690;51.454;7.194;2024-03-06T16:24:35;10.10;99.90
1391;DHT22;690;51.454;7.194;2024-03-06T16:27:03;9.90;99.90
1391;DHT22;690;51.454;7.194;2024-03-06T16:29:29;10.00;99.90
1391;DHT22;690;51.454;7.194;2024-03-06T16:31:56;9.90;99.90
1391;DHT22;690;51.454;7.194;2024-03-06T16:34:24;9.90;99.90
1391;DHT22;690;51.454;7.194;2024-03-06T16:36:51;9.80;99.90